sensor_id;sensor_type;location;lat;lon;timestamp;pressure;altitude;pressure_sealevel;temperature;humidity
50250;BME280;36133;42.522;27.456;2023-03-26T00:01:04;100599.00;;;13.57;70.97
50250;BME280;36133;42.522;27.456;2023-03-26T00:03:34;100563.13;;;13.74;69.99
50250;BME280;36133;42.522;27.456;2023-03-26T00:06:04;100445.28;;;13.44;69.03
50250;BME280;36133;42.522;27.456;2023-03-26T00:08:35;100521.28;;;14.02;68.71
50250;BME280;36133;42.522;27.456;2023-03-26T00:11:03;100583.75;;;14.53;68.14
50250;BME280;36133;42.522;27.456;2023-03-26T00:13:29;100493.75;;;13.92;68.92
50250;BME280;36133;42.522;27.456;2023-03-26T00:15:59;100308.50;;;13.33;67.41
50250;BME280;36133;42.522;27.456;2023-03-26T00:18:25;100557.16;;;15.25;66.03
50250;BME280;36133;42.522;27.456;2023-03-26T00:21:01;100543.69;;;15.98;64.14
50250;BME280;36133;42.522;27.456;2023-03-26T00:23:28;100509.22;;;15.31;65.75
50250;BME280;36133;42.522;27.456;2023-03-26T00:25:54;100172.72;;;12.90;68.00
50250;BME280;36133;42.522;27.456;2023-03-26T00:28:21;100017.19;;;12.28;65.76
50250;BME280;36133;42.522;27.456;2023-03-26T00:30:48;100410.69;;;15.83;60.77
50250;BME280;36133;42.522;27.456;2023-03-26T00:33:15;100495.09;;;17.15;57.50
50250;BME280;36133;42.522;27.456;2023-03-26T00:35:43;100477.06;;;16.49;59.32
50250;BME280;36133;42.522;27.456;2023-03-26T00:38:13;100445.06;;;16.86;58.51
50250;BME280;36133;42.522;27.456;2023-03-26T00:40:38;100400.88;;;16.13;59.57
50250;BME280;36133;42.522;27.456;2023-03-26T00:43:11;100536.41;;;15.74;62.57
50250;BME280;36133;42.522;27.456;2023-03-26T00:45:51;100308.13;;;15.66;59.34
50250;BME280;36133;42.522;27.456;2023-03-26T00:48:19;100574.34;;;15.94;63.78
50250;BME280;36133;42.522;27.456;2023-03-26T00:50:48;100436.53;;;16.53;59.83
50250;BME280;36133;42.522;27.456;2023-03-26T00:53:15;100528.31;;;17.12;59.60
50250;BME280;36133;42.522;27.456;2023-03-26T00:55:43;100425.81;;;17.51;56.02
50250;BME280;36133;42.522;27.456;2023-03-26T00:58:10;100288.66;;;16.46;57.46
50250;BME280;36133;42.522;27.456;2023-03-26T01:00:51;100477.78;;;17.80;56.62
50250;BME280;36133;42.522;27.456;2023-03-26T01:03:18;100544.22;;;18.09;55.78
50250;BME280;36133;42.522;27.456;2023-03-26T01:05:48;100393.34;;;17.15;56.61
50250;BME280;36133;42.522;27.456;2023-03-26T01:11:19;100499.63;;;16.68;58.33
50250;BME280;36133;42.522;27.456;2023-03-26T01:14:16;100515.09;;;16.07;60.73
50250;BME280;36133;42.522;27.456;2023-03-26T01:22:16;100537.41;;;16.64;60.04
50250;BME280;36133;42.522;27.456;2023-03-26T01:24:41;100547.19;;;17.14;58.00
50250;BME280;36133;42.522;27.456;2023-03-26T01:29:48;100520.41;;;16.81;58.10
50250;BME280;36133;42.522;27.456;2023-03-26T01:37:50;100516.59;;;19.08;53.01
50250;BME280;36133;42.522;27.456;2023-03-26T01:46:06;100523.84;;;17.76;56.69
50250;BME280;36133;42.522;27.456;2023-03-26T01:48:36;100537.72;;;16.26;60.68
50250;BME280;36133;42.522;27.456;2023-03-26T01:51:03;100534.66;;;15.36;63.66
50250;BME280;36133;42.522;27.456;2023-03-26T01:53:30;100553.78;;;15.05;65.85
50250;BME280;36133;42.522;27.456;2023-03-26T02:07:40;100513.09;;;14.91;66.48
50250;BME280;36133;42.522;27.456;2023-03-26T02:10:29;100574.59;;;15.17;67.18
50250;BME280;36133;42.522;27.456;2023-03-26T02:12:57;100534.13;;;15.28;66.65
50250;BME280;36133;42.522;27.456;2023-03-26T02:15:23;100567.59;;;15.96;64.87
50250;BME280;36133;42.522;27.456;2023-03-26T02:17:48;100503.31;;;15.77;64.33
50250;BME280;36133;42.522;27.456;2023-03-26T02:20:17;100533.69;;;15.74;64.02
50250;BME280;36133;42.522;27.456;2023-03-26T02:22:44;100548.59;;;15.71;64.75
50250;BME280;36133;42.522;27.456;2023-03-26T02:25:14;100586.59;;;16.88;61.97
50250;BME280;36133;42.522;27.456;2023-03-26T02:27:40;100540.13;;;16.64;61.56
50250;BME280;36133;42.522;27.456;2023-03-26T02:30:08;100550.44;;;16.62;61.04
50250;BME280;36133;42.522;27.456;2023-03-26T02:32:34;100521.81;;;17.13;59.64
50250;BME280;36133;42.522;27.456;2023-03-26T02:35:00;100567.78;;;16.98;59.67
50250;BME280;36133;42.522;27.456;2023-03-26T02:37:26;100568.13;;;17.02;60.33
50250;BME280;36133;42.522;27.456;2023-03-26T02:39:51;100450.91;;;16.30;59.08
50250;BME280;36133;42.522;27.456;2023-03-26T02:42:17;100542.72;;;16.89;59.85
50250;BME280;36133;42.522;27.456;2023-03-26T02:44:42;100525.50;;;17.66;57.46
50250;BME280;36133;42.522;27.456;2023-03-26T02:47:08;100457.78;;;18.03;55.17
50250;BME280;36133;42.522;27.456;2023-03-26T02:49:34;100521.91;;;19.31;53.13
50250;BME280;36133;42.522;27.456;2023-03-26T02:52:00;100546.38;;;19.21;53.25
50250;BME280;36133;42.522;27.456;2023-03-26T02:54:26;100548.78;;;19.51;52.59
50250;BME280;36133;42.522;27.456;2023-03-26T02:56:52;100407.00;;;18.64;52.17
50250;BME280;36133;42.522;27.456;2023-03-26T02:59:18;100367.16;;;18.06;53.10
50250;BME280;36133;42.522;27.456;2023-03-26T03:01:43;100457.75;;;18.43;53.54
50250;BME280;36133;42.522;27.456;2023-03-26T03:04:10;100558.22;;;19.10;53.24
50250;BME280;36133;42.522;27.456;2023-03-26T03:06:36;100569.22;;;18.98;53.76
50250;BME280;36133;42.522;27.456;2023-03-26T03:09:04;100574.00;;;18.62;54.57
50250;BME280;36133;42.522;27.456;2023-03-26T03:11:29;100525.84;;;17.11;58.39
50250;BME280;36133;42.522;27.456;2023-03-26T03:13:55;100556.81;;;17.40;58.60
50250;BME280;36133;42.522;27.456;2023-03-26T03:16:21;100583.34;;;17.09;59.75
50250;BME280;36133;42.522;27.456;2023-03-26T03:18:46;100591.38;;;16.26;62.41
50250;BME280;36133;42.522;27.456;2023-03-26T03:21:19;100445.34;;;15.15;63.30
50250;BME280;36133;42.522;27.456;2023-03-26T03:23:44;100590.38;;;16.02;63.28
50250;BME280;36133;42.522;27.456;2023-03-26T03:26:16;100355.56;;;14.78;63.81
50250;BME280;36133;42.522;27.456;2023-03-26T03:28:42;100393.81;;;14.77;63.63
50250;BME280;36133;42.522;27.456;2023-03-26T03:31:10;100500.34;;;15.60;64.95
50250;BME280;36133;42.522;27.456;2023-03-26T03:33:35;100324.09;;;14.46;63.64
50250;BME280;36133;42.522;27.456;2023-03-26T03:36:01;100578.38;;;15.66;65.73
50250;BME280;36133;42.522;27.456;2023-03-26T03:38:36;100125.47;;;13.49;63.38
50250;BME280;36133;42.522;27.456;2023-03-26T03:41:01;100386.88;;;15.06;62.96
50250;BME280;36133;42.522;27.456;2023-03-26T03:43:27;100579.47;;;16.20;63.95
50250;BME280;36133;42.522;27.456;2023-03-26T03:45:53;100298.28;;;14.30;64.20
50250;BME280;36133;42.522;27.456;2023-03-26T03:48:18;100352.94;;;14.65;63.67
50250;BME280;36133;42.522;27.456;2023-03-26T03:50:44;100268.63;;;14.53;62.46
50250;BME280;36133;42.522;27.456;2023-03-26T03:53:10;100135.63;;;13.29;64.06
50250;BME280;36133;42.522;27.456;2023-03-26T03:55:40;100430.50;;;15.11;63.91
50250;BME280;36133;42.522;27.456;2023-03-26T03:58:08;100346.66;;;14.40;64.36
50250;BME280;36133;42.522;27.456;2023-03-26T04:00:34;100131.38;;;13.01;64.71
50250;BME280;36133;42.522;27.456;2023-03-26T04:03:05;100399.69;;;14.74;64.72
50250;BME280;36133;42.522;27.456;2023-03-26T04:05:31;100399.13;;;14.65;64.65
50250;BME280;36133;42.522;27.456;2023-03-26T04:07:57;100524.34;;;15.70;63.97
50250;BME280;36133;42.522;27.456;2023-03-26T04:10:25;100136.94;;;13.76;63.10
50250;BME280;36133;42.522;27.456;2023-03-26T04:12:53;100522.19;;;16.27;61.64
50250;BME280;36133;42.522;27.456;2023-03-26T04:15:22;100206.28;;;14.15;61.85
50250;BME280;36133;42.522;27.456;2023-03-26T04:17:48;100320.91;;;14.74;62.73
50250;BME280;36133;42.522;27.456;2023-03-26T04:20:17;100185.84;;;13.31;64.23
50250;BME280;36133;42.522;27.456;2023-03-26T04:22:44;100644.78;;;16.45;63.56
50250;BME280;36133;42.522;27.456;2023-03-26T04:25:14;100451.03;;;16.05;61.43
50250;BME280;36133;42.522;27.456;2023-03-26T04:27:39;100567.19;;;16.96;60.87
50250;BME280;36133;42.522;27.456;2023-03-26T04:30:10;100630.59;;;17.21;59.73
50250;BME280;36133;42.522;27.456;2023-03-26T04:32:40;100635.66;;;18.41;57.47
50250;BME280;36133;42.522;27.456;2023-03-26T04:35:09;100655.31;;;19.52;54.51
50250;BME280;36133;42.522;27.456;2023-03-26T04:37:40;100645.84;;;18.98;54.67
50250;BME280;36133;42.522;27.456;2023-03-26T04:40:13;100662.31;;;19.60;52.92
50250;BME280;36133;42.522;27.456;2023-03-26T04:42:39;100661.91;;;18.66;54.37
50250;BME280;36133;42.522;27.456;2023-03-26T04:45:11;100534.59;;;16.41;57.71
50250;BME280;36133;42.522;27.456;2023-03-26T04:47:37;100636.75;;;16.87;58.05
50250;BME280;36133;42.522;27.456;2023-03-26T04:50:05;100245.31;;;14.64;57.74
50250;BME280;36133;42.522;27.456;2023-03-26T04:52:32;100715.69;;;17.42;57.59
50250;BME280;36133;42.522;27.456;2023-03-26T04:54:57;100363.56;;;15.83;55.30
50250;BME280;36133;42.522;27.456;2023-03-26T04:57:32;100727.09;;;17.39;56.24
50250;BME280;36133;42.522;27.456;2023-03-26T04:59:59;100738.31;;;17.61;56.08
50250;BME280;36133;42.522;27.456;2023-03-26T05:02:24;100753.09;;;16.75;58.22
50250;BME280;36133;42.522;27.456;2023-03-26T05:04:50;100748.91;;;17.39;56.47
50250;BME280;36133;42.522;27.456;2023-03-26T05:07:19;100759.19;;;17.25;56.99
50250;BME280;36133;42.522;27.456;2023-03-26T05:09:44;100666.16;;;16.85;56.27
50250;BME280;36133;42.522;27.456;2023-03-26T05:12:10;100751.03;;;16.27;59.56
50250;BME280;36133;42.522;27.456;2023-03-26T05:14:39;100307.19;;;13.81;59.08
50250;BME280;36133;42.522;27.456;2023-03-26T05:17:04;100464.22;;;15.90;56.79
50250;BME280;36133;42.522;27.456;2023-03-26T05:19:31;100470.28;;;16.22;55.86
50250;BME280;36133;42.522;27.456;2023-03-26T05:21:57;100727.78;;;17.34;57.92
50250;BME280;36133;42.522;27.456;2023-03-26T05:24:22;100596.94;;;16.49;57.61
50250;BME280;36133;42.522;27.456;2023-03-26T05:26:49;100300.84;;;13.04;62.56
50250;BME280;36133;42.522;27.456;2023-03-26T05:29:16;100576.22;;;14.93;63.64
50250;BME280;36133;42.522;27.456;2023-03-26T05:31:42;100276.91;;;13.52;62.64
50250;BME280;36133;42.522;27.456;2023-03-26T05:34:09;100715.59;;;17.18;60.27
50250;BME280;36133;42.522;27.456;2023-03-26T05:36:34;100687.59;;;18.06;56.96
50250;BME280;36133;42.522;27.456;2023-03-26T05:39:02;100590.34;;;17.82;56.35
50250;BME280;36133;42.522;27.456;2023-03-26T05:41:30;100687.97;;;18.85;55.08
50250;BME280;36133;42.522;27.456;2023-03-26T05:43:55;100448.59;;;16.75;56.11
50250;BME280;36133;42.522;27.456;2023-03-26T05:46:21;100365.72;;;17.11;54.89
50250;BME280;36133;42.522;27.456;2023-03-26T05:48:48;100658.34;;;18.94;54.91
50250;BME280;36133;42.522;27.456;2023-03-26T05:51:20;100700.34;;;18.88;55.88
50250;BME280;36133;42.522;27.456;2023-03-26T05:53:47;100531.75;;;16.96;57.03
50250;BME280;36133;42.522;27.456;2023-03-26T05:56:13;100562.63;;;16.11;60.60
50250;BME280;36133;42.522;27.456;2023-03-26T05:58:38;100540.50;;;16.20;59.99
50250;BME280;36133;42.522;27.456;2023-03-26T06:01:11;100481.72;;;17.14;57.10
50250;BME280;36133;42.522;27.456;2023-03-26T06:03:41;100652.34;;;17.40;58.35
50250;BME280;36133;42.522;27.456;2023-03-26T06:06:13;100492.78;;;15.99;59.58
50250;BME280;36133;42.522;27.456;2023-03-26T06:08:43;100278.44;;;15.64;57.19
50250;BME280;36133;42.522;27.456;2023-03-26T06:11:11;100294.34;;;14.94;58.34
50250;BME280;36133;42.522;27.456;2023-03-26T06:13:40;100714.41;;;16.84;60.36
50250;BME280;36133;42.522;27.456;2023-03-26T06:16:10;100558.38;;;15.97;61.03
50250;BME280;36133;42.522;27.456;2023-03-26T06:18:43;100429.41;;;15.18;61.39
50250;BME280;36133;42.522;27.456;2023-03-26T06:21:09;100619.22;;;16.28;62.10
50250;BME280;36133;42.522;27.456;2023-03-26T06:23:37;100519.97;;;15.19;63.72
50250;BME280;36133;42.522;27.456;2023-03-26T06:26:03;100576.66;;;15.72;63.69
50250;BME280;36133;42.522;27.456;2023-03-26T06:28:28;100229.28;;;13.56;63.64
50250;BME280;36133;42.522;27.456;2023-03-26T06:30:59;100271.00;;;13.62;64.65
50250;BME280;36133;42.522;27.456;2023-03-26T06:33:26;100720.09;;;16.58;64.87
50250;BME280;36133;42.522;27.456;2023-03-26T06:35:55;100645.34;;;15.92;64.72
50250;BME280;36133;42.522;27.456;2023-03-26T06:38:23;100410.56;;;14.74;64.61
50250;BME280;36133;42.522;27.456;2023-03-26T06:40:52;100566.56;;;16.16;62.92
50250;BME280;36133;42.522;27.456;2023-03-26T06:43:18;100354.41;;;14.68;63.68
50250;BME280;36133;42.522;27.456;2023-03-26T06:45:44;100570.03;;;16.04;63.66
50250;BME280;36133;42.522;27.456;2023-03-26T06:48:11;100744.41;;;17.44;62.47
50250;BME280;36133;42.522;27.456;2023-03-26T06:50:37;100740.63;;;17.75;61.78
50250;BME280;36133;42.522;27.456;2023-03-26T06:53:03;100316.28;;;15.47;60.27
50250;BME280;36133;42.522;27.456;2023-03-26T06:55:28;100545.19;;;17.21;59.66
50250;BME280;36133;42.522;27.456;2023-03-26T07:01:06;100328.16;;;14.98;60.55
50250;BME280;36133;42.522;27.456;2023-03-26T07:03:35;100753.78;;;18.20;60.25
50250;BME280;36133;42.522;27.456;2023-03-26T07:06:09;100663.59;;;18.08;58.67
50250;BME280;36133;42.522;27.456;2023-03-26T07:08:35;100578.19;;;16.89;60.50
50250;BME280;36133;42.522;27.456;2023-03-26T07:11:01;100399.72;;;15.90;59.13
50250;BME280;36133;42.522;27.456;2023-03-26T07:13:26;100587.38;;;17.72;57.18
50250;BME280;36133;42.522;27.456;2023-03-26T07:15:55;100672.97;;;18.24;56.96
50250;BME280;36133;42.522;27.456;2023-03-26T07:18:43;100313.25;;;15.56;57.31
50250;BME280;36133;42.522;27.456;2023-03-26T07:21:20;100321.72;;;15.96;55.68
50250;BME280;36133;42.522;27.456;2023-03-26T07:23:46;100502.56;;;17.90;53.99
50250;BME280;36133;42.522;27.456;2023-03-26T07:29:01;100578.09;;;18.48;53.08
50250;BME280;36133;42.522;27.456;2023-03-26T07:31:39;100736.38;;;19.53;53.01
50250;BME280;36133;42.522;27.456;2023-03-26T07:37:01;100559.44;;;19.86;47.22
50250;BME280;36133;42.522;27.456;2023-03-26T07:39:43;100526.16;;;20.38;46.77
50250;BME280;36133;42.522;27.456;2023-03-26T07:45:13;100701.44;;;25.69;37.96
50250;BME280;36133;42.522;27.456;2023-03-26T07:47:43;100499.72;;;24.46;37.49
50250;BME280;36133;42.522;27.456;2023-03-26T07:50:29;100696.75;;;26.80;35.86
50250;BME280;36133;42.522;27.456;2023-03-26T07:52:55;100602.53;;;26.62;34.47
50250;BME280;36133;42.522;27.456;2023-03-26T07:55:21;100599.56;;;25.13;36.30
50250;BME280;36133;42.522;27.456;2023-03-26T08:00:39;100692.50;;;24.83;38.15
50250;BME280;36133;42.522;27.456;2023-03-26T08:03:12;100705.84;;;22.66;42.07
50250;BME280;36133;42.522;27.456;2023-03-26T08:19:31;100567.00;;;24.55;35.03
50250;BME280;36133;42.522;27.456;2023-03-26T08:22:12;100544.16;;;23.39;35.07
50250;BME280;36133;42.522;27.456;2023-03-26T08:24:56;100605.09;;;25.47;32.67
50250;BME280;36133;42.522;27.456;2023-03-26T08:30:26;100427.97;;;25.20;29.61
50250;BME280;36133;42.522;27.456;2023-03-26T08:33:11;100512.91;;;26.57;28.27
50250;BME280;36133;42.522;27.456;2023-03-26T08:35:41;100693.94;;;29.50;26.88
50250;BME280;36133;42.522;27.456;2023-03-26T08:38:15;100691.59;;;31.38;24.64
50250;BME280;36133;42.522;27.456;2023-03-26T08:47:13;100704.69;;;29.65;25.68
50250;BME280;36133;42.522;27.456;2023-03-26T08:50:02;100668.91;;;29.13;25.02
50250;BME280;36133;42.522;27.456;2023-03-26T08:55:51;100698.16;;;28.10;25.99
50250;BME280;36133;42.522;27.456;2023-03-26T08:58:49;100595.72;;;27.15;26.62
50250;BME280;36133;42.522;27.456;2023-03-26T09:08:09;100703.75;;;29.47;24.64
50250;BME280;36133;42.522;27.456;2023-03-26T09:20:20;100705.19;;;29.67;24.53
50250;BME280;36133;42.522;27.456;2023-03-26T09:40:19;100533.47;;;32.94;19.09
50250;BME280;36133;42.522;27.456;2023-03-26T09:43:19;100688.06;;;34.69;17.89
50250;BME280;36133;42.522;27.456;2023-03-26T09:46:24;100690.94;;;34.36;18.76
50250;BME280;36133;42.522;27.456;2023-03-26T09:49:05;100235.50;;;32.03;18.10
50250;BME280;36133;42.522;27.456;2023-03-26T09:51:59;100201.31;;;31.23;18.55
50250;BME280;36133;42.522;27.456;2023-03-26T10:00:25;100238.56;;;29.72;19.79
50250;BME280;36133;42.522;27.456;2023-03-26T10:08:24;100536.50;;;35.02;16.20
50250;BME280;36133;42.522;27.456;2023-03-26T10:13:51;100382.56;;;26.86;22.30
50250;BME280;36133;42.522;27.456;2023-03-26T10:16:29;100685.31;;;34.24;17.71
50250;BME280;36133;42.522;27.456;2023-03-26T10:21:37;100669.88;;;31.61;19.78
50250;BME280;36133;42.522;27.456;2023-03-26T10:27:00;100671.72;;;36.99;15.39
50250;BME280;36133;42.522;27.456;2023-03-26T10:32:41;100686.13;;;35.34;16.47
50250;BME280;36133;42.522;27.456;2023-03-26T10:35:38;100620.81;;;30.02;20.03
50250;BME280;36133;42.522;27.456;2023-03-26T10:38:28;100676.94;;;30.58;20.12
50250;BME280;36133;42.522;27.456;2023-03-26T10:52:14;100213.19;;;31.82;16.04
50250;BME280;36133;42.522;27.456;2023-03-26T11:00:16;100497.72;;;29.43;19.08
50250;BME280;36133;42.522;27.456;2023-03-26T11:05:45;100559.75;;;28.85;19.29
50250;BME280;36133;42.522;27.456;2023-03-26T11:08:24;100485.06;;;29.29;18.35
50250;BME280;36133;42.522;27.456;2023-03-26T11:28:01;100503.81;;;33.02;15.71
50250;BME280;36133;42.522;27.456;2023-03-26T11:30:36;100620.38;;;31.32;16.39
50250;BME280;36133;42.522;27.456;2023-03-26T11:33:08;100558.53;;;33.45;14.50
50250;BME280;36133;42.522;27.456;2023-03-26T11:35:50;100373.22;;;33.03;14.52
50250;BME280;36133;42.522;27.456;2023-03-26T11:40:49;100633.97;;;31.42;17.27
50250;BME280;36133;42.522;27.456;2023-03-26T11:43:27;100214.47;;;28.85;17.89
50250;BME280;36133;42.522;27.456;2023-03-26T11:45:56;100462.66;;;31.98;16.84
50250;BME280;36133;42.522;27.456;2023-03-26T11:48:36;100467.53;;;33.84;15.33
50250;BME280;36133;42.522;27.456;2023-03-26T11:51:08;100337.38;;;31.38;16.32
50250;BME280;36133;42.522;27.456;2023-03-26T11:53:36;100620.19;;;35.84;14.90
50250;BME280;36133;42.522;27.456;2023-03-26T11:56:34;100615.97;;;36.22;14.51
50250;BME280;36133;42.522;27.456;2023-03-26T11:59:18;100611.81;;;35.56;14.31
50250;BME280;36133;42.522;27.456;2023-03-26T12:04:41;100612.81;;;32.60;16.30
50250;BME280;36133;42.522;27.456;2023-03-26T12:07:19;100395.13;;;32.47;15.99
50250;BME280;36133;42.522;27.456;2023-03-26T12:10:05;100461.88;;;32.81;15.71
50250;BME280;36133;42.522;27.456;2023-03-26T12:12:47;100626.13;;;35.95;14.11
50250;BME280;36133;42.522;27.456;2023-03-26T12:15:16;100437.09;;;33.13;15.69
50250;BME280;36133;42.522;27.456;2023-03-26T12:17:44;100611.22;;;35.78;14.47
50250;BME280;36133;42.522;27.456;2023-03-26T12:22:54;100336.06;;;27.57;19.56
50250;BME280;36133;42.522;27.456;2023-03-26T12:25:41;100107.34;;;25.35;20.57
50250;BME280;36133;42.522;27.456;2023-03-26T12:28:20;100152.88;;;27.67;19.04
50250;BME280;36133;42.522;27.456;2023-03-26T12:31:05;100234.81;;;27.96;19.11
50250;BME280;36133;42.522;27.456;2023-03-26T12:33:42;100638.38;;;25.71;23.29
50250;BME280;36133;42.522;27.456;2023-03-26T12:38:44;100609.28;;;26.03;22.65
50250;BME280;36133;42.522;27.456;2023-03-26T12:41:12;100015.59;;;21.59;23.50
50250;BME280;36133;42.522;27.456;2023-03-26T12:44:22;100605.19;;;29.62;19.64
50250;BME280;36133;42.522;27.456;2023-03-26T12:46:51;100095.72;;;26.72;19.49
50250;BME280;36133;42.522;27.456;2023-03-26T12:49:30;100347.88;;;28.71;18.73
50250;BME280;36133;42.522;27.456;2023-03-26T12:54:56;100589.44;;;28.63;20.01
50250;BME280;36133;42.522;27.456;2023-03-26T12:57:36;100536.44;;;29.85;18.68
50250;BME280;36133;42.522;27.456;2023-03-26T13:00:27;100145.63;;;29.73;16.64
50250;BME280;36133;42.522;27.456;2023-03-26T13:09:01;100572.69;;;29.26;19.00
50250;BME280;36133;42.522;27.456;2023-03-26T13:25:18;100577.28;;;27.90;20.71
50250;BME280;36133;42.522;27.456;2023-03-26T13:33:51;100565.72;;;33.13;16.75
50250;BME280;36133;42.522;27.456;2023-03-26T13:42:27;100534.97;;;34.28;15.32
50250;BME280;36133;42.522;27.456;2023-03-26T13:45:02;100446.91;;;30.66;17.04
50250;BME280;36133;42.522;27.456;2023-03-26T13:47:43;100568.34;;;33.30;15.67
50250;BME280;36133;42.522;27.456;2023-03-26T13:50:21;100551.47;;;30.98;17.18
50250;BME280;36133;42.522;27.456;2023-03-26T13:55:43;100554.25;;;31.06;17.54
50250;BME280;36133;42.522;27.456;2023-03-26T13:58:19;100381.00;;;31.72;16.29
50250;BME280;36133;42.522;27.456;2023-03-26T14:00:51;100562.72;;;30.58;17.79
50250;BME280;36133;42.522;27.456;2023-03-26T14:03:34;100013.56;;;25.57;19.04
50250;BME280;36133;42.522;27.456;2023-03-26T14:06:17;100298.59;;;27.73;18.41
50250;BME280;36133;42.522;27.456;2023-03-26T14:08:50;100206.63;;;26.02;19.58
50250;BME280;36133;42.522;27.456;2023-03-26T14:14:36;99973.28;;;25.70;18.60
50250;BME280;36133;42.522;27.456;2023-03-26T14:17:12;100500.81;;;29.11;18.34
50250;BME280;36133;42.522;27.456;2023-03-26T14:30:52;100426.06;;;32.62;15.01
50250;BME280;36133;42.522;27.456;2023-03-26T14:36:16;100447.94;;;31.34;15.84
50250;BME280;36133;42.522;27.456;2023-03-26T14:41:50;100463.97;;;33.05;14.74
50250;BME280;36133;42.522;27.456;2023-03-26T14:52:47;100399.66;;;30.95;14.92
50250;BME280;36133;42.522;27.456;2023-03-26T15:01:22;100573.50;;;30.02;23.21
50250;BME280;36133;42.522;27.456;2023-03-26T15:20:47;100235.88;;;23.92;29.85
50250;BME280;36133;42.522;27.456;2023-03-26T15:23:36;100644.13;;;26.99;28.84
50250;BME280;36133;42.522;27.456;2023-03-26T15:30:07;100640.84;;;23.99;33.75
50250;BME280;36133;42.522;27.456;2023-03-26T15:36:09;100642.03;;;22.17;36.28
50250;BME280;36133;42.522;27.456;2023-03-26T15:38:59;100193.16;;;19.81;36.56
50250;BME280;36133;42.522;27.456;2023-03-26T15:42:03;100647.47;;;22.54;36.89
50250;BME280;36133;42.522;27.456;2023-03-26T15:53:30;100159.22;;;17.85;38.97
50250;BME280;36133;42.522;27.456;2023-03-26T16:10:32;100700.50;;;17.76;47.72
50250;BME280;36133;42.522;27.456;2023-03-26T16:18:40;100067.91;;;13.72;48.43
50250;BME280;36133;42.522;27.456;2023-03-26T16:29:21;100630.16;;;16.58;52.00
50250;BME280;36133;42.522;27.456;2023-03-26T16:35:21;100150.88;;;13.55;52.22
50250;BME280;36133;42.522;27.456;2023-03-26T16:38:04;100704.50;;;16.65;53.03
50250;BME280;36133;42.522;27.456;2023-03-26T16:40:34;100263.63;;;14.00;52.70
50250;BME280;36133;42.522;27.456;2023-03-26T16:52:24;100696.41;;;16.40;53.89
50250;BME280;36133;42.522;27.456;2023-03-26T16:55:34;100692.28;;;16.74;52.89
50250;BME280;36133;42.522;27.456;2023-03-26T17:01:21;100541.25;;;15.72;53.14
50250;BME280;36133;42.522;27.456;2023-03-26T17:04:14;100702.91;;;16.57;52.72
50250;BME280;36133;42.522;27.456;2023-03-26T17:06:59;100572.72;;;15.68;53.44
50250;BME280;36133;42.522;27.456;2023-03-26T17:09:58;100588.59;;;15.71;54.00
50250;BME280;36133;42.522;27.456;2023-03-26T17:18:00;100724.28;;;16.60;53.38
50250;BME280;36133;42.522;27.456;2023-03-26T17:26:49;100532.06;;;14.67;54.72
50250;BME280;36133;42.522;27.456;2023-03-26T17:33:51;100668.84;;;15.30;55.25
50250;BME280;36133;42.522;27.456;2023-03-26T17:36:30;100747.88;;;16.05;54.40
50250;BME280;36133;42.522;27.456;2023-03-26T17:38:59;100460.03;;;14.19;53.47
50250;BME280;36133;42.522;27.456;2023-03-26T17:41:48;100765.81;;;16.37;53.32
50250;BME280;36133;42.522;27.456;2023-03-26T17:47:00;100784.16;;;15.29;56.61
50250;BME280;36133;42.522;27.456;2023-03-26T17:49:29;100656.84;;;13.57;60.00
50250;BME280;36133;42.522;27.456;2023-03-26T17:51:59;100762.03;;;14.15;60.34
50250;BME280;36133;42.522;27.456;2023-03-26T17:54:43;100787.09;;;14.23;60.47
50250;BME280;36133;42.522;27.456;2023-03-26T17:57:26;100770.59;;;13.98;61.00
50250;BME280;36133;42.522;27.456;2023-03-26T17:59:56;100542.84;;;12.78;60.90
50250;BME280;36133;42.522;27.456;2023-03-26T18:02:37;100751.38;;;13.60;61.65
50250;BME280;36133;42.522;27.456;2023-03-26T18:05:11;100801.09;;;13.94;62.07
50250;BME280;36133;42.522;27.456;2023-03-26T18:18:53;100814.69;;;14.07;61.50
50250;BME280;36133;42.522;27.456;2023-03-26T18:21:36;100714.59;;;13.38;62.20
50250;BME280;36133;42.522;27.456;2023-03-26T18:24:04;100803.41;;;14.56;60.18
50250;BME280;36133;42.522;27.456;2023-03-26T18:26:35;100724.41;;;13.39;61.65
50250;BME280;36133;42.522;27.456;2023-03-26T18:31:40;100579.16;;;12.90;60.29
50250;BME280;36133;42.522;27.456;2023-03-26T18:34:13;100806.75;;;14.32;60.18
50250;BME280;36133;42.522;27.456;2023-03-26T18:36:44;100803.81;;;14.07;61.45
50250;BME280;36133;42.522;27.456;2023-03-26T18:39:13;100708.53;;;13.23;63.01
50250;BME280;36133;42.522;27.456;2023-03-26T18:41:39;100722.56;;;12.91;64.25
50250;BME280;36133;42.522;27.456;2023-03-26T18:44:16;100801.34;;;14.45;61.32
50250;BME280;36133;42.522;27.456;2023-03-26T18:46:43;100769.97;;;13.83;62.18
50250;BME280;36133;42.522;27.456;2023-03-26T18:49:11;100531.53;;;12.41;62.21
50250;BME280;36133;42.522;27.456;2023-03-26T18:51:41;100802.75;;;13.88;62.83
50250;BME280;36133;42.522;27.456;2023-03-26T18:54:13;100600.38;;;12.80;62.22
50250;BME280;36133;42.522;27.456;2023-03-26T18:56:42;100772.91;;;13.82;62.53
50250;BME280;36133;42.522;27.456;2023-03-26T18:59:31;100250.41;;;11.18;59.65
50250;BME280;36133;42.522;27.456;2023-03-26T19:02:02;100707.75;;;14.08;60.56
50250;BME280;36133;42.522;27.456;2023-03-26T19:04:30;100335.31;;;12.17;58.46
50250;BME280;36133;42.522;27.456;2023-03-26T19:07:00;100275.56;;;11.25;58.87